Saltillo, PA (17253)

5:13 AM EDT on July 02, 2015 (GMT -0400)
Three Springs, PA | | Change Station
CLOSE
Current Station
Personal Weather Station
Location: Three Springs, PA
Elevation: 807 ft
Nearby Weather Stations

Elev 807 ft 40.21 °N, 77.96 °W | Updated 6 seconds ago

Mostly Cloudy
Mostly Cloudy
54.0 °F
Feels Like 54.0 °F
N
0.0
Wind Variable Wind from West
Gusts 0.0 mph

Today
High -- | Low -- °F
--% Chance of Precip.
Yesterday
High -- | Low -- °F
Precip. -- in
5:46 AM 8:45 PM
Full, 100% visible
Pressure 29.92 in
Visibility 4.0 miles
Clouds Clear
Dew Point 53 °F
Humidity 97%
Rainfall 0.00 in
Snow Depth Not available.
UV 0.0 out of 12
Pollen 3.90 out of 12
Air Quality Not available.
Flu Activity Not available.
METAR KAOO 020853Z AUTO 00000KT 4SM BR CLR 13/12 A2994 RMK AO2 SLP132 T01330122 55005

More Conditions Fewer Conditions

Pressure 29.92 in
Visibility 4.0 miles
Clouds Clear
Dew Point 53 °F
Humidity 97%
Rainfall 0.00 in
Snow Depth Not available.
UV 0.0 out of 12
Pollen 3.90 out of 12
Air Quality Not available.
Flu Activity Not available.
METAR KAOO 020853Z AUTO 00000KT 4SM BR CLR 13/12 A2994 RMK AO2 SLP132 T01330122 55005

More Conditions Fewer Conditions

10-Day Weather Forecast

×

Almanac

Astronomy

Jul. 02, 2015 Rise Set
Actual Time
Civil Twilight
Nautical Twilight
Astronomical Twilight
Moon
Length of Visible Light
Length of Day
Tomorrow will be .
, % of the Moon is Illuminated

Today's Extremes

State Highs State Lows

Community

WunderPhotos

Upload Photos

1,834,423 photos uploaded!

WunderBlogs® & News

Nearby

Air Quality

  Air Quality AQ Index Pollutant
Not available.

Snow Depth

Station Depth Elevation

Earthquake Activity

City Distance Mag. Time & Date
Minimum magnitude displayed is 2.5.

Coastal Water Temperatures

Place Temperature

Stations

Nearby Weather Stations

Station Location Temp. Windchill Dew Point Humidity Wind Precip. Elev Updated Type